N551ES KBLI-KHND
Flight info
| Callsign | N551ES |
|---|---|
| Flight time | N/A |
| Altitude | 31000 |
| Route | KLSHN2 KLSHN SEA PAAGE Q11 PAWLI Q13 FUULL GAMES2 |
| Aircraft | E55P/L-VGDW/C |
Departure
| Time | N/A |
|---|---|
| Airport | Bellingham International Airport (KBLI) |
Arrival
| Time | 2026-05-04 03:54 |
|---|---|
| Airport | Henderson Executive Airport (KHND) |
| Time | Latitude | Longitude | Altitude | Speed | Heading |
|---|---|---|---|---|---|
| 2026-05-04 01:52 | 47.66497 | -122.38453 | 39205 ft | 432 kts | 161° |
| 2026-05-04 01:53 | 47.64482 | -122.37792 | 39491 ft | 434 kts | 161° |
| 2026-05-04 01:53 | 47.61542 | -122.36832 | 39911 ft | 437 kts | 162° |
| 2026-05-04 01:53 | 47.58583 | -122.35862 | 40238 ft | 442 kts | 162° |
| 2026-05-04 01:54 | 47.55579 | -122.34887 | 40622 ft | 444 kts | 162° |
| 2026-05-04 01:54 | 47.52526 | -122.33891 | 41000 ft | 447 kts | 163° |
| 2026-05-04 01:54 | 47.49498 | -122.32906 | 41319 ft | 449 kts | 163° |
| 2026-05-04 01:54 | 47.46471 | -122.31921 | 41669 ft | 449 kts | 163° |
| 2026-05-04 01:55 | 47.43447 | -122.30899 | 42212 ft | 441 kts | 159° |
| 2026-05-04 01:55 | 47.40599 | -122.29332 | 42579 ft | 436 kts | 154° |
| 2026-05-04 01:55 | 47.37797 | -122.27719 | 42750 ft | 441 kts | 154° |
| 2026-05-04 01:55 | 47.34917 | -122.26081 | 42908 ft | 446 kts | 155° |
| 2026-05-04 01:56 | 47.31998 | -122.24427 | 43181 ft | 447 kts | 155° |
| 2026-05-04 01:56 | 47.29130 | -122.22805 | 43442 ft | 448 kts | 155° |
| 2026-05-04 01:56 | 47.26197 | -122.21152 | 43844 ft | 445 kts | 156° |
| 2026-05-04 01:56 | 47.23371 | -122.19557 | 44296 ft | 440 kts | 156° |
| 2026-05-04 01:57 | 47.20525 | -122.17950 | 44512 ft | 441 kts | 156° |
| 2026-05-04 01:57 | 47.17621 | -122.16318 | 44612 ft | 446 kts | 156° |
| 2026-05-04 01:57 | 47.14713 | -122.14685 | 44746 ft | 449 kts | 157° |
| 2026-05-04 01:57 | 47.11798 | -122.13047 | 44881 ft | 453 kts | 157° |
| 2026-05-04 01:58 | 47.05847 | -122.09715 | 44900 ft | 465 kts | 157° |
| 2026-05-04 01:58 | 46.99887 | -122.06384 | 44910 ft | 450 kts | 157° |
| 2026-05-04 01:59 | 46.97023 | -122.04786 | 44915 ft | 435 kts | 157° |
| 2026-05-04 01:59 | 46.94224 | -122.03230 | 44912 ft | 425 kts | 157° |
| 2026-05-04 01:59 | 46.88703 | -122.00147 | 44944 ft | 434 kts | 157° |
| 2026-05-04 02:00 | 46.82995 | -121.96978 | 44941 ft | 447 kts | 157° |
| 2026-05-04 02:00 | 46.77156 | -121.93744 | 44953 ft | 452 kts | 157° |
| 2026-05-04 02:01 | 46.71289 | -121.90498 | 44964 ft | 452 kts | 157° |
| 2026-05-04 02:01 | 46.65443 | -121.87280 | 44973 ft | 449 kts | 157° |
| 2026-05-04 02:02 | 46.59646 | -121.84088 | 44981 ft | 444 kts | 157° |
| 2026-05-04 02:02 | 46.53894 | -121.80929 | 44987 ft | 442 kts | 157° |
| 2026-05-04 02:03 | 46.48163 | -121.77791 | 44999 ft | 446 kts | 157° |
| 2026-05-04 02:03 | 46.42307 | -121.74644 | 45017 ft | 453 kts | 163° |
| 2026-05-04 02:04 | 46.36112 | -121.72932 | 45018 ft | 456 kts | 168° |
| 2026-05-04 02:04 | 46.29898 | -121.71282 | 45012 ft | 452 kts | 168° |
| 2026-05-04 02:05 | 46.23793 | -121.69665 | 45020 ft | 446 kts | 168° |
| 2026-05-04 02:05 | 46.17693 | -121.68056 | 45009 ft | 444 kts | 167° |
| 2026-05-04 02:06 | 46.11636 | -121.66458 | 44998 ft | 447 kts | 167° |
| 2026-05-04 02:06 | 46.05474 | -121.64834 | 44983 ft | 453 kts | 168° |
| 2026-05-04 02:07 | 45.99299 | -121.63216 | 44958 ft | 454 kts | 168° |
| 2026-05-04 02:07 | 45.93124 | -121.61600 | 44938 ft | 450 kts | 168° |
| 2026-05-04 02:08 | 45.87010 | -121.60004 | 44919 ft | 445 kts | 168° |
| 2026-05-04 02:08 | 45.80955 | -121.58427 | 44908 ft | 442 kts | 168° |
| 2026-05-04 02:09 | 45.74914 | -121.56853 | 44895 ft | 444 kts | 168° |
| 2026-05-04 02:09 | 45.68800 | -121.55269 | 44910 ft | 447 kts | 168° |
| 2026-05-04 02:10 | 45.62675 | -121.53683 | 44927 ft | 448 kts | 168° |
| 2026-05-04 02:10 | 45.56593 | -121.52111 | 44952 ft | 445 kts | 168° |
| 2026-05-04 02:11 | 45.50535 | -121.50549 | 44975 ft | 441 kts | 168° |
| 2026-05-04 02:11 | 45.44549 | -121.49011 | 44992 ft | 441 kts | 168° |
| 2026-05-04 02:12 | 45.38483 | -121.47452 | 45001 ft | 444 kts | 168° |
| 2026-05-04 02:12 | 45.32424 | -121.45905 | 44998 ft | 446 kts | 168° |
| 2026-05-04 02:13 | 45.26337 | -121.44350 | 44996 ft | 445 kts | 168° |
| 2026-05-04 02:13 | 45.20276 | -121.42802 | 44983 ft | 440 kts | 168° |
| 2026-05-04 02:14 | 45.14290 | -121.41280 | 44969 ft | 437 kts | 168° |
| 2026-05-04 02:14 | 45.08334 | -121.39768 | 44961 ft | 438 kts | 168° |
| 2026-05-04 02:15 | 45.02322 | -121.38245 | 44955 ft | 442 kts | 168° |
| 2026-05-04 02:15 | 44.96266 | -121.36714 | 44952 ft | 444 kts | 169° |
| 2026-05-04 02:16 | 44.90196 | -121.35182 | 44950 ft | 442 kts | 169° |
| 2026-05-04 02:16 | 44.84195 | -121.33675 | 44940 ft | 437 kts | 169° |
| 2026-05-04 02:17 | 44.78252 | -121.32182 | 44932 ft | 435 kts | 169° |
| 2026-05-04 02:17 | 44.72295 | -121.30688 | 44934 ft | 438 kts | 169° |
| 2026-05-04 02:18 | 44.66292 | -121.29185 | 44936 ft | 443 kts | 169° |
| 2026-05-04 02:18 | 44.60222 | -121.27671 | 44936 ft | 445 kts | 169° |
| 2026-05-04 02:19 | 44.54158 | -121.26160 | 44935 ft | 442 kts | 169° |
| 2026-05-04 02:19 | 44.48127 | -121.24663 | 44936 ft | 436 kts | 169° |
| 2026-05-04 02:20 | 44.42179 | -121.23189 | 44943 ft | 434 kts | 169° |
| 2026-05-04 02:20 | 44.36251 | -121.21720 | 44951 ft | 437 kts | 169° |
| 2026-05-04 02:21 | 44.30234 | -121.20234 | 44963 ft | 442 kts | 169° |
| 2026-05-04 02:21 | 44.24182 | -121.18742 | 44970 ft | 446 kts | 170° |
| 2026-05-04 02:22 | 44.18074 | -121.17239 | 44974 ft | 444 kts | 170° |
| 2026-05-04 02:22 | 44.12047 | -121.15762 | 44974 ft | 439 kts | 170° |
| 2026-05-04 02:23 | 44.06068 | -121.14298 | 44981 ft | 434 kts | 169° |
| 2026-05-04 02:23 | 44.00133 | -121.12846 | 44987 ft | 436 kts | 170° |
| 2026-05-04 02:24 | 43.94157 | -121.11388 | 45000 ft | 441 kts | 170° |
| 2026-05-04 02:24 | 43.88087 | -121.09911 | 44998 ft | 445 kts | 170° |
| 2026-05-04 02:25 | 43.81983 | -121.08427 | 45026 ft | 444 kts | 170° |
| 2026-05-04 02:25 | 43.75940 | -121.06964 | 45035 ft | 439 kts | 170° |
| 2026-05-04 02:26 | 43.69974 | -121.05521 | 45039 ft | 435 kts | 170° |
| 2026-05-04 02:26 | 43.64029 | -121.04085 | 45030 ft | 436 kts | 170° |
| 2026-05-04 02:27 | 43.58025 | -121.02639 | 45023 ft | 440 kts | 170° |
| 2026-05-04 02:27 | 43.51986 | -121.01185 | 45021 ft | 443 kts | 170° |
| 2026-05-04 02:28 | 43.45922 | -120.99730 | 45010 ft | 443 kts | 170° |
| 2026-05-04 02:28 | 43.39870 | -120.98284 | 45012 ft | 439 kts | 170° |
| 2026-05-04 02:29 | 43.33901 | -120.96857 | 45016 ft | 435 kts | 170° |
| 2026-05-04 02:29 | 43.27993 | -120.95448 | 45021 ft | 433 kts | 170° |
| 2026-05-04 02:30 | 43.22031 | -120.94028 | 45020 ft | 436 kts | 170° |
| 2026-05-04 02:30 | 43.16156 | -120.92101 | 45014 ft | 438 kts | 157° |
| 2026-05-04 02:31 | 43.10510 | -120.88966 | 45016 ft | 441 kts | 158° |
| 2026-05-04 02:31 | 43.04821 | -120.85852 | 45024 ft | 440 kts | 158° |
| 2026-05-04 02:32 | 42.99160 | -120.82761 | 45025 ft | 435 kts | 158° |
| 2026-05-04 02:32 | 42.93606 | -120.79737 | 45012 ft | 431 kts | 158° |
| 2026-05-04 02:33 | 42.88039 | -120.76711 | 45000 ft | 431 kts | 158° |
| 2026-05-04 02:33 | 42.82438 | -120.73671 | 45008 ft | 436 kts | 158° |
| 2026-05-04 02:34 | 42.76791 | -120.70610 | 44983 ft | 440 kts | 158° |
| 2026-05-04 02:34 | 42.71104 | -120.67536 | 45008 ft | 441 kts | 158° |
| 2026-05-04 02:35 | 42.65410 | -120.64464 | 45005 ft | 437 kts | 158° |
| 2026-05-04 02:35 | 42.59803 | -120.61445 | 45038 ft | 434 kts | 158° |
| 2026-05-04 02:36 | 42.54203 | -120.58435 | 45023 ft | 433 kts | 158° |
| 2026-05-04 02:36 | 42.48598 | -120.55428 | 45056 ft | 437 kts | 158° |
| 2026-05-04 02:37 | 42.42947 | -120.52403 | 45042 ft | 441 kts | 158° |
| 2026-05-04 02:37 | 42.37204 | -120.49334 | 45035 ft | 443 kts | 159° |
| 2026-05-04 02:38 | 42.31533 | -120.46309 | 45021 ft | 440 kts | 159° |
| 2026-05-04 02:38 | 42.25851 | -120.43287 | 45002 ft | 436 kts | 159° |
| 2026-05-04 02:39 | 42.20241 | -120.40307 | 44984 ft | 435 kts | 159° |
| 2026-05-04 02:39 | 42.14616 | -120.37324 | 45001 ft | 438 kts | 159° |
| 2026-05-04 02:40 | 42.08924 | -120.34312 | 45005 ft | 442 kts | 159° |
| 2026-05-04 02:40 | 42.03212 | -120.31294 | 45019 ft | 443 kts | 160° |
| 2026-05-04 02:41 | 41.97489 | -120.28277 | 45031 ft | 441 kts | 160° |
| 2026-05-04 02:41 | 41.91782 | -120.25275 | 45041 ft | 437 kts | 160° |
| 2026-05-04 02:42 | 41.86145 | -120.22317 | 45037 ft | 436 kts | 160° |
| 2026-05-04 02:42 | 41.80493 | -120.19353 | 45042 ft | 439 kts | 160° |
| 2026-05-04 02:43 | 41.74802 | -120.16377 | 45041 ft | 443 kts | 160° |
| 2026-05-04 02:43 | 41.69044 | -120.13370 | 45043 ft | 444 kts | 160° |
| 2026-05-04 02:44 | 41.63344 | -120.10398 | 45039 ft | 440 kts | 160° |
| 2026-05-04 02:44 | 41.57705 | -120.07466 | 45034 ft | 433 kts | 160° |
| 2026-05-04 02:45 | 41.52119 | -120.04565 | 45025 ft | 430 kts | 161° |
| 2026-05-04 02:45 | 41.46517 | -120.01663 | 45018 ft | 434 kts | 161° |
| 2026-05-04 02:46 | 41.40804 | -119.98940 | 45028 ft | 437 kts | 165° |
| 2026-05-04 02:46 | 41.34993 | -119.96535 | 45005 ft | 437 kts | 165° |
| 2026-05-04 02:47 | 41.29219 | -119.94131 | 45005 ft | 432 kts | 165° |
| 2026-05-04 02:47 | 41.23568 | -119.91782 | 44996 ft | 426 kts | 165° |
| 2026-05-04 02:48 | 41.17915 | -119.89436 | 44995 ft | 424 kts | 165° |
| 2026-05-04 02:48 | 41.12265 | -119.87097 | 45003 ft | 428 kts | 165° |
| 2026-05-04 02:49 | 41.06567 | -119.84739 | 44997 ft | 433 kts | 165° |
| 2026-05-04 02:49 | 41.00792 | -119.82357 | 44992 ft | 434 kts | 165° |
| 2026-05-04 02:50 | 40.95097 | -119.80010 | 44985 ft | 429 kts | 165° |
| 2026-05-04 02:50 | 40.89424 | -119.77679 | 44988 ft | 422 kts | 165° |
| 2026-05-04 02:51 | 40.83849 | -119.75393 | 45005 ft | 421 kts | 165° |
| 2026-05-04 02:51 | 40.78238 | -119.73092 | 45011 ft | 425 kts | 165° |
| 2026-05-04 02:52 | 40.72562 | -119.70773 | 45004 ft | 430 kts | 165° |
| 2026-05-04 02:52 | 40.66811 | -119.68421 | 44987 ft | 433 kts | 165° |
| 2026-05-04 02:53 | 40.61082 | -119.66087 | 44974 ft | 430 kts | 165° |
| 2026-05-04 02:53 | 40.55424 | -119.63786 | 44965 ft | 424 kts | 165° |
| 2026-05-04 02:54 | 40.49816 | -119.61507 | 44962 ft | 421 kts | 165° |
| 2026-05-04 02:54 | 40.44227 | -119.59247 | 44962 ft | 424 kts | 165° |
| 2026-05-04 02:55 | 40.35729 | -119.55807 | 44980 ft | 430 kts | 166° |
| 2026-05-04 02:56 | 40.29956 | -119.53476 | 44982 ft | 433 kts | 166° |
| 2026-05-04 02:56 | 40.24223 | -119.51166 | 44995 ft | 432 kts | 166° |
| 2026-05-04 02:57 | 40.18494 | -119.48862 | 44993 ft | 428 kts | 166° |
| 2026-05-04 02:57 | 40.12834 | -119.46590 | 44985 ft | 424 kts | 166° |
| 2026-05-04 02:58 | 40.07232 | -119.44350 | 44978 ft | 424 kts | 166° |
| 2026-05-04 02:58 | 40.01552 | -119.42075 | 44980 ft | 428 kts | 166° |
| 2026-05-04 02:59 | 39.95870 | -119.39803 | 44982 ft | 431 kts | 166° |
| 2026-05-04 02:59 | 39.90128 | -119.37515 | 44982 ft | 431 kts | 166° |
| 2026-05-04 03:00 | 39.84439 | -119.35249 | 44983 ft | 428 kts | 166° |
| 2026-05-04 03:00 | 39.78751 | -119.32989 | 44982 ft | 425 kts | 167° |
| 2026-05-04 03:01 | 39.73117 | -119.30759 | 44976 ft | 425 kts | 167° |
| 2026-05-04 03:01 | 39.67488 | -119.28526 | 44977 ft | 426 kts | 167° |
| 2026-05-04 03:02 | 39.61812 | -119.26283 | 44979 ft | 427 kts | 167° |
| 2026-05-04 03:02 | 39.56132 | -119.24041 | 44961 ft | 425 kts | 167° |
| 2026-05-04 03:03 | 39.50505 | -119.21824 | 44976 ft | 423 kts | 168° |
| 2026-05-04 03:03 | 39.44891 | -119.19623 | 44978 ft | 422 kts | 168° |
| 2026-05-04 03:04 | 39.39264 | -119.17413 | 44967 ft | 424 kts | 168° |
| 2026-05-04 03:04 | 39.33615 | -119.15196 | 44969 ft | 424 kts | 168° |
| 2026-05-04 03:05 | 39.27978 | -119.12991 | 44966 ft | 424 kts | 168° |
| 2026-05-04 03:05 | 39.22363 | -119.10701 | 44924 ft | 427 kts | 160° |
| 2026-05-04 03:05 | 39.19896 | -119.08571 | 44985 ft | 433 kts | 144° |
| 2026-05-04 03:06 | 39.17575 | -119.06094 | 44973 ft | 433 kts | 146° |
| 2026-05-04 03:06 | 39.12887 | -119.01251 | 44982 ft | 436 kts | 147° |
| 2026-05-04 03:07 | 39.08136 | -118.96359 | 44956 ft | 440 kts | 146° |
| 2026-05-04 03:07 | 39.03368 | -118.91444 | 44942 ft | 438 kts | 146° |
| 2026-05-04 03:08 | 38.98635 | -118.86581 | 44945 ft | 432 kts | 147° |
| 2026-05-04 03:08 | 38.93992 | -118.81817 | 44926 ft | 429 kts | 147° |
| 2026-05-04 03:09 | 38.89296 | -118.77018 | 44935 ft | 432 kts | 147° |
| 2026-05-04 03:09 | 38.84595 | -118.72211 | 44944 ft | 437 kts | 147° |
| 2026-05-04 03:10 | 38.79792 | -118.67313 | 44955 ft | 442 kts | 147° |
| 2026-05-04 03:10 | 38.75001 | -118.62428 | 44962 ft | 442 kts | 147° |
| 2026-05-04 03:11 | 38.70206 | -118.57550 | 44977 ft | 437 kts | 147° |
| 2026-05-04 03:11 | 38.65476 | -118.52755 | 44969 ft | 434 kts | 147° |
| 2026-05-04 03:12 | 38.60746 | -118.47964 | 44976 ft | 435 kts | 147° |
| 2026-05-04 03:12 | 38.56004 | -118.43169 | 44978 ft | 440 kts | 147° |
| 2026-05-04 03:13 | 38.51172 | -118.38292 | 44982 ft | 444 kts | 147° |
| 2026-05-04 03:13 | 38.46316 | -118.33397 | 44973 ft | 444 kts | 148° |
| 2026-05-04 03:14 | 38.41532 | -118.28578 | 44972 ft | 440 kts | 148° |
| 2026-05-04 03:14 | 38.36734 | -118.23757 | 44985 ft | 436 kts | 148° |
| 2026-05-04 03:15 | 38.31988 | -118.19007 | 45003 ft | 439 kts | 148° |
| 2026-05-04 03:15 | 38.27163 | -118.14172 | 44994 ft | 444 kts | 148° |
| 2026-05-04 03:16 | 38.22298 | -118.09314 | 44986 ft | 446 kts | 149° |
| 2026-05-04 03:16 | 38.17430 | -118.04459 | 44958 ft | 443 kts | 148° |
| 2026-05-04 03:17 | 38.12628 | -117.99674 | 44946 ft | 437 kts | 149° |
| 2026-05-04 03:17 | 38.07859 | -117.94937 | 44943 ft | 435 kts | 149° |
| 2026-05-04 03:18 | 38.03107 | -117.90221 | 44929 ft | 439 kts | 149° |
| 2026-05-04 03:18 | 37.98266 | -117.85428 | 44935 ft | 445 kts | 149° |
| 2026-05-04 03:19 | 37.93383 | -117.80597 | 44951 ft | 444 kts | 149° |
| 2026-05-04 03:19 | 37.88549 | -117.75820 | 44950 ft | 438 kts | 149° |
| 2026-05-04 03:20 | 37.83797 | -117.71142 | 44969 ft | 434 kts | 149° |
| 2026-05-04 03:20 | 37.79037 | -117.66460 | 44973 ft | 435 kts | 150° |
| 2026-05-04 03:21 | 37.74215 | -117.61723 | 44971 ft | 440 kts | 150° |
| 2026-05-04 03:21 | 37.69362 | -117.56969 | 44963 ft | 443 kts | 149° |
| 2026-05-04 03:22 | 37.64511 | -117.52215 | 44971 ft | 440 kts | 150° |
| 2026-05-04 03:22 | 37.59718 | -117.47531 | 44967 ft | 435 kts | 150° |
| 2026-05-04 03:23 | 37.54959 | -117.42894 | 44979 ft | 434 kts | 150° |
| 2026-05-04 03:23 | 37.50187 | -117.38242 | 44978 ft | 435 kts | 150° |
| 2026-05-04 03:24 | 37.45391 | -117.33581 | 44971 ft | 437 kts | 151° |
| 2026-05-04 03:24 | 37.40593 | -117.28924 | 44968 ft | 435 kts | 152° |
| 2026-05-04 03:25 | 37.35809 | -117.24335 | 44957 ft | 431 kts | 152° |
| 2026-05-04 03:25 | 37.31045 | -117.19822 | 44959 ft | 428 kts | 152° |
| 2026-05-04 03:26 | 37.26354 | -117.15214 | 44949 ft | 428 kts | 154° |
| 2026-05-04 03:26 | 37.21382 | -117.11329 | 44948 ft | 429 kts | 155° |
| 2026-05-04 03:27 | 37.16382 | -117.07140 | 44936 ft | 434 kts | 155° |
| 2026-05-04 03:27 | 37.11398 | -117.02942 | 44935 ft | 431 kts | 155° |
| 2026-05-04 03:28 | 37.06432 | -116.98762 | 44922 ft | 426 kts | 155° |
| 2026-05-04 03:28 | 37.01540 | -116.94659 | 44909 ft | 422 kts | 155° |
| 2026-05-04 03:29 | 36.96689 | -116.90591 | 44925 ft | 421 kts | 155° |
| 2026-05-04 03:29 | 36.91840 | -116.86536 | 44921 ft | 424 kts | 155° |
| 2026-05-04 03:30 | 36.86892 | -116.82401 | 44858 ft | 428 kts | 155° |
| 2026-05-04 03:30 | 36.81941 | -116.78271 | 44896 ft | 430 kts | 155° |
| 2026-05-04 03:31 | 36.76981 | -116.74139 | 44891 ft | 428 kts | 155° |
| 2026-05-04 03:31 | 36.72037 | -116.70026 | 44878 ft | 427 kts | 155° |
| 2026-05-04 03:32 | 36.67144 | -116.65970 | 44873 ft | 426 kts | 156° |
| 2026-05-04 03:32 | 36.62207 | -116.61877 | 44306 ft | 438 kts | 156° |
| 2026-05-04 03:32 | 36.59793 | -116.59391 | 43130 ft | 459 kts | 146° |
| 2026-05-04 03:33 | 36.57530 | -116.56664 | 42211 ft | 456 kts | 147° |
| 2026-05-04 03:33 | 36.55246 | -116.53954 | 41228 ft | 457 kts | 148° |
| 2026-05-04 03:33 | 36.52935 | -116.51218 | 39973 ft | 463 kts | 149° |
| 2026-05-04 03:33 | 36.50635 | -116.48505 | 38763 ft | 467 kts | 149° |
| 2026-05-04 03:34 | 36.48282 | -116.45725 | 37562 ft | 471 kts | 150° |
| 2026-05-04 03:34 | 36.45884 | -116.42902 | 36496 ft | 472 kts | 149° |
| 2026-05-04 03:34 | 36.43569 | -116.40060 | 35249 ft | 478 kts | 147° |
| 2026-05-04 03:34 | 36.41227 | -116.37170 | 34053 ft | 479 kts | 147° |
| 2026-05-04 03:35 | 36.38871 | -116.34264 | 32803 ft | 482 kts | 147° |
| 2026-05-04 03:35 | 36.36494 | -116.31355 | 31641 ft | 482 kts | 146° |
| 2026-05-04 03:35 | 36.34149 | -116.28458 | 30505 ft | 481 kts | 145° |
| 2026-05-04 03:35 | 36.31774 | -116.25551 | 29287 ft | 479 kts | 144° |
| 2026-05-04 03:36 | 36.29460 | -116.22694 | 28339 ft | 469 kts | 144° |
| 2026-05-04 03:36 | 36.27341 | -116.19608 | 27475 ft | 465 kts | 136° |
| 2026-05-04 03:36 | 36.25370 | -116.16573 | 26438 ft | 457 kts | 137° |
| 2026-05-04 03:36 | 36.23411 | -116.13533 | 25203 ft | 454 kts | 137° |
| 2026-05-04 03:37 | 36.21438 | -116.10518 | 23815 ft | 453 kts | 137° |
| 2026-05-04 03:37 | 36.19474 | -116.07517 | 22597 ft | 446 kts | 136° |
| 2026-05-04 03:37 | 36.17564 | -116.04592 | 21720 ft | 433 kts | 136° |
| 2026-05-04 03:37 | 36.15707 | -116.01743 | 20749 ft | 424 kts | 135° |
| 2026-05-04 03:38 | 36.13887 | -115.98968 | 19765 ft | 414 kts | 134° |
| 2026-05-04 03:38 | 36.12105 | -115.96242 | 18822 ft | 405 kts | 134° |
| 2026-05-04 03:38 | 36.10422 | -115.93494 | 17860 ft | 398 kts | 130° |
| 2026-05-04 03:38 | 36.08808 | -115.90824 | 17000 ft | 385 kts | 130° |
| 2026-05-04 03:39 | 36.07238 | -115.88202 | 16006 ft | 378 kts | 130° |
| 2026-05-04 03:39 | 36.05716 | -115.85680 | 15437 ft | 359 kts | 129° |
| 2026-05-04 03:39 | 36.04194 | -115.83342 | 14743 ft | 343 kts | 139° |
| 2026-05-04 03:39 | 36.02185 | -115.81922 | 13843 ft | 330 kts | 164° |
| 2026-05-04 03:40 | 36.00027 | -115.81078 | 12989 ft | 323 kts | 161° |
| 2026-05-04 03:40 | 35.97940 | -115.80209 | 11985 ft | 322 kts | 162° |
| 2026-05-04 03:40 | 35.95829 | -115.79343 | 11217 ft | 313 kts | 162° |
| 2026-05-04 03:40 | 35.93843 | -115.78520 | 11088 ft | 287 kts | 162° |
| 2026-05-04 03:41 | 35.92048 | -115.77782 | 11071 ft | 264 kts | 162° |
| 2026-05-04 03:41 | 35.90345 | -115.77080 | 10863 ft | 252 kts | 162° |
| 2026-05-04 03:41 | 35.88679 | -115.76395 | 10231 ft | 258 kts | 162° |
| 2026-05-04 03:41 | 35.86969 | -115.75697 | 9661 ft | 259 kts | 162° |
| 2026-05-04 03:42 | 35.85257 | -115.74993 | 9108 ft | 260 kts | 162° |
| 2026-05-04 03:42 | 35.83536 | -115.74284 | 8619 ft | 263 kts | 163° |
| 2026-05-04 03:42 | 35.81817 | -115.73575 | 8421 ft | 257 kts | 163° |
| 2026-05-04 03:42 | 35.80163 | -115.72874 | 8391 ft | 247 kts | 158° |
| 2026-05-04 03:43 | 35.78886 | -115.71467 | 8153 ft | 260 kts | 122° |
| 2026-05-04 03:43 | 35.78194 | -115.69407 | 8111 ft | 253 kts | 116° |
| 2026-05-04 03:43 | 35.77564 | -115.67427 | 8101 ft | 253 kts | 116° |
| 2026-05-04 03:43 | 35.77161 | -115.65302 | 8105 ft | 263 kts | 90° |
| 2026-05-04 03:44 | 35.77788 | -115.63163 | 8144 ft | 273 kts | 61° |
| 2026-05-04 03:44 | 35.78828 | -115.61188 | 8137 ft | 276 kts | 61° |
| 2026-05-04 03:44 | 35.79874 | -115.59184 | 8138 ft | 278 kts | 60° |
| 2026-05-04 03:44 | 35.80919 | -115.57164 | 8140 ft | 280 kts | 60° |
| 2026-05-04 03:45 | 35.81965 | -115.55161 | 8141 ft | 282 kts | 60° |
| 2026-05-04 03:45 | 35.83011 | -115.53114 | 8147 ft | 283 kts | 60° |
| 2026-05-04 03:45 | 35.84072 | -115.51065 | 8155 ft | 284 kts | 60° |
| 2026-05-04 03:45 | 35.85141 | -115.49002 | 8139 ft | 285 kts | 60° |
| 2026-05-04 03:46 | 35.86224 | -115.46931 | 8133 ft | 286 kts | 60° |
| 2026-05-04 03:46 | 35.87293 | -115.44881 | 8133 ft | 287 kts | 59° |
| 2026-05-04 03:46 | 35.88362 | -115.42829 | 8121 ft | 287 kts | 60° |
| 2026-05-04 03:46 | 35.89447 | -115.40747 | 8090 ft | 286 kts | 60° |
| 2026-05-04 03:47 | 35.90526 | -115.38702 | 8114 ft | 285 kts | 59° |
| 2026-05-04 03:47 | 35.91597 | -115.36653 | 8110 ft | 286 kts | 60° |
| 2026-05-04 03:47 | 35.92679 | -115.34596 | 8101 ft | 286 kts | 60° |
| 2026-05-04 03:47 | 35.93762 | -115.32526 | 8089 ft | 287 kts | 60° |
| 2026-05-04 03:48 | 35.94845 | -115.30462 | 8082 ft | 288 kts | 60° |
| 2026-05-04 03:48 | 35.95678 | -115.28259 | 8065 ft | 280 kts | 85° |
| 2026-05-04 03:48 | 35.95840 | -115.25914 | 8048 ft | 263 kts | 91° |
| 2026-05-04 03:48 | 35.95986 | -115.23708 | 7610 ft | 263 kts | 91° |
| 2026-05-04 03:49 | 35.96112 | -115.21431 | 7054 ft | 266 kts | 91° |
| 2026-05-04 03:49 | 35.96236 | -115.19229 | 6977 ft | 249 kts | 91° |
| 2026-05-04 03:49 | 35.96366 | -115.17120 | 6722 ft | 244 kts | 91° |
| 2026-05-04 03:49 | 35.96492 | -115.15043 | 6297 ft | 247 kts | 90° |
| 2026-05-04 03:50 | 35.96613 | -115.12907 | 5866 ft | 249 kts | 91° |
| 2026-05-04 03:50 | 35.96855 | -115.10802 | 5509 ft | 252 kts | 71° |
| 2026-05-04 03:50 | 35.97913 | -115.09106 | 5133 ft | 254 kts | 41° |
| 2026-05-04 03:50 | 35.99239 | -115.07756 | 5101 ft | 237 kts | 32° |
| 2026-05-04 03:51 | 36.00725 | -115.07271 | 5069 ft | 214 kts | 347° |
| 2026-05-04 03:51 | 36.01931 | -115.08015 | 5049 ft | 175 kts | 303° |
| 2026-05-04 03:51 | 36.02370 | -115.09257 | 4755 ft | 148 kts | 271° |
| 2026-05-04 03:51 | 36.02365 | -115.10489 | 4329 ft | 147 kts | 261° |
| 2026-05-04 03:52 | 36.02204 | -115.11707 | 3859 ft | 144 kts | 247° |
| 2026-05-04 03:52 | 36.01770 | -115.12702 | 3564 ft | 128 kts | 223° |
| 2026-05-04 03:52 | 36.01014 | -115.13219 | 3244 ft | 121 kts | 197° |
| 2026-05-04 03:52 | 36.00196 | -115.13328 | 2991 ft | 115 kts | 196° |
| 2026-05-04 03:53 | 35.99429 | -115.13511 | 2755 ft | 111 kts | 181° |
| 2026-05-04 03:53 | 35.98647 | -115.13514 | 2541 ft | 110 kts | 186° |
| 2026-05-04 03:53 | 35.97900 | -115.13534 | 2418 ft | 104 kts | 183° |
| 2026-05-04 03:53 | 35.97328 | -115.13549 | 2433 ft | 61 kts | 182° |
| 2026-05-04 03:54 | 35.96975 | -115.13546 | 2449 ft | 40 kts | 182° |
| 2026-05-04 03:54 | 35.96744 | -115.13555 | 2459 ft | 20 kts | 200° |
| 2026-05-04 03:54 | 35.96767 | -115.13652 | 2456 ft | 18 kts | 10° |
| 2026-05-04 03:54 | 35.96907 | -115.13648 | 2450 ft | 21 kts | 1° |
| 2026-05-04 03:55 | 35.97068 | -115.13646 | 2443 ft | 24 kts | 360° |
| 2026-05-04 03:55 | 35.97193 | -115.13646 | 2438 ft | 18 kts | 0° |
| 2026-05-04 03:55 | 35.97337 | -115.13645 | 2430 ft | 22 kts | 1° |
| 2026-05-04 03:55 | 35.97450 | -115.13724 | 2425 ft | 22 kts | 267° |
| 2026-05-04 03:56 | 35.97456 | -115.13811 | 2423 ft | 1 kts | 358° |
| 2026-05-04 03:56 | 35.97488 | -115.13784 | 2422 ft | 6 kts | 327° |
| 2026-05-04 03:56 | 35.97479 | -115.13796 | 2422 ft | 0 kts | 172° |